Terminal Aerodrome Forecast
Issued by NWS

Home | Current Version | Previous Version | Text Only | Print | Product List | Glossary On
Versions: 1 2 3 4 5 6 7 8 9 10 11 12 13 14 15 16 17 18 19 20 21 22
651
FTUS43 KGRR 212340
TAFMKG
TAF
KMKG 212340Z 2200/2224 VRB03KT P6SM SKC
     FM221000 18005KT 6SM HZ BKN150
     FM221500 20009KT P6SM SCT040 SCT150=

USA.gov is the U.S. government's official web portal to all federal, state and local government web resources and services.